Beachview, Louisiana
Current Conditions -  °F | °C
As of 1:53 AM on Saturday 29 Nov 2014 (Local Time) from KMSY Reporting Station
Few Clouds Few Clouds  
Wind Chill: 51°   Ceiling: Unl
Heat Index: 51°   Visibility: 10mi
Dew Point: 47°   Wind: 7mph
Humidity: 86%   Direction: 140°SE
Pressure: 30.22"   Gusts: NA
Location:  29.991°N, 90.2553°W
Report Text: KMSY 290753Z 14006KT 10SM FEW025 11/08 A3022 RMK AO2 SLP235 T01060083
Loading
Personal Weather Stations






























Interactive Weather Map New forecast layout! Learn more

10-Day Weather Forecast

Advertisements
Track Severe Weather on mobile